sensor_id;sensor_type;location;lat;lon;timestamp;temperature;humidity
5554;DHT22;2800;49.528;8.666;2022-09-12T00:01:08;14.40;99.90
5554;DHT22;2800;49.528;8.666;2022-09-12T00:03:33;14.50;99.90
5554;DHT22;2800;49.528;8.666;2022-09-12T00:05:59;14.40;99.90
5554;DHT22;2800;49.528;8.666;2022-09-12T00:08:25;14.30;99.90
5554;DHT22;2800;49.528;8.666;2022-09-12T00:10:51;14.30;99.90
5554;DHT22;2800;49.528;8.666;2022-09-12T00:13:16;14.30;99.90
5554;DHT22;2800;49.528;8.666;2022-09-12T00:15:43;14.30;99.90
5554;DHT22;2800;49.528;8.666;2022-09-12T00:18:12;14.20;99.90
5554;DHT22;2800;49.528;8.666;2022-09-12T00:20:42;14.30;99.90
5554;DHT22;2800;49.528;8.666;2022-09-12T00:23:08;14.30;99.90
5554;DHT22;2800;49.528;8.666;2022-09-12T00:25:39;14.30;99.90
5554;DHT22;2800;49.528;8.666;2022-09-12T00:28:04;14.20;99.90
5554;DHT22;2800;49.528;8.666;2022-09-12T00:30:30;14.20;99.90
5554;DHT22;2800;49.528;8.666;2022-09-12T00:32:55;14.20;99.90
5554;DHT22;2800;49.528;8.666;2022-09-12T00:35:21;14.20;99.90
5554;DHT22;2800;49.528;8.666;2022-09-12T00:37:46;14.20;99.90
5554;DHT22;2800;49.528;8.666;2022-09-12T00:40:12;14.20;99.90
5554;DHT22;2800;49.528;8.666;2022-09-12T00:42:37;14.20;99.90
5554;DHT22;2800;49.528;8.666;2022-09-12T00:45:04;14.20;99.90
5554;DHT22;2800;49.528;8.666;2022-09-12T00:47:30;14.20;99.90
5554;DHT22;2800;49.528;8.666;2022-09-12T00:49:58;14.20;99.90
5554;DHT22;2800;49.528;8.666;2022-09-12T00:52:33;14.10;99.90
5554;DHT22;2800;49.528;8.666;2022-09-12T00:55:07;14.00;99.90
5554;DHT22;2800;49.528;8.666;2022-09-12T00:57:43;14.00;99.90
5554;DHT22;2800;49.528;8.666;2022-09-12T01:00:11;14.00;99.90
5554;DHT22;2800;49.528;8.666;2022-09-12T01:02:40;14.00;99.90
5554;DHT22;2800;49.528;8.666;2022-09-12T01:05:07;13.90;99.90
5554;DHT22;2800;49.528;8.666;2022-09-12T01:07:35;13.80;99.90
5554;DHT22;2800;49.528;8.666;2022-09-12T01:10:02;13.80;99.90
5554;DHT22;2800;49.528;8.666;2022-09-12T01:12:28;13.80;99.90
5554;DHT22;2800;49.528;8.666;2022-09-12T01:14:54;13.80;99.90
5554;DHT22;2800;49.528;8.666;2022-09-12T01:17:19;13.80;99.90
5554;DHT22;2800;49.528;8.666;2022-09-12T01:20:25;13.70;99.90
5554;DHT22;2800;49.528;8.666;2022-09-12T01:23:11;13.70;99.90
5554;DHT22;2800;49.528;8.666;2022-09-12T01:32:23;13.60;99.90
5554;DHT22;2800;49.528;8.666;2022-09-12T01:38:07;13.70;99.90
5554;DHT22;2800;49.528;8.666;2022-09-12T01:43:46;13.70;99.90
5554;DHT22;2800;49.528;8.666;2022-09-12T01:46:20;13.70;99.90
5554;DHT22;2800;49.528;8.666;2022-09-12T01:49:09;13.80;99.90
5554;DHT22;2800;49.528;8.666;2022-09-12T01:54:49;13.70;99.90
5554;DHT22;2800;49.528;8.666;2022-09-12T01:57:21;13.70;99.90
5554;DHT22;2800;49.528;8.666;2022-09-12T01:59:53;13.70;99.90
5554;DHT22;2800;49.528;8.666;2022-09-12T02:02:32;13.80;99.90
5554;DHT22;2800;49.528;8.666;2022-09-12T02:05:16;13.90;99.90
5554;DHT22;2800;49.528;8.666;2022-09-12T02:07:48;13.80;99.90
5554;DHT22;2800;49.528;8.666;2022-09-12T02:10:25;13.90;99.90
5554;DHT22;2800;49.528;8.666;2022-09-12T02:13:10;13.80;99.90
5554;DHT22;2800;49.528;8.666;2022-09-12T02:15:42;13.80;99.90
5554;DHT22;2800;49.528;8.666;2022-09-12T02:18:11;13.90;99.90
5554;DHT22;2800;49.528;8.666;2022-09-12T02:20:41;13.90;99.90
5554;DHT22;2800;49.528;8.666;2022-09-12T02:23:12;14.00;99.90
5554;DHT22;2800;49.528;8.666;2022-09-12T02:25:43;14.00;99.90
5554;DHT22;2800;49.528;8.666;2022-09-12T02:28:21;13.80;99.90
5554;DHT22;2800;49.528;8.666;2022-09-12T02:33:45;13.60;99.90
5554;DHT22;2800;49.528;8.666;2022-09-12T02:38:49;13.90;99.90
5554;DHT22;2800;49.528;8.666;2022-09-12T02:41:18;14.30;99.90
5554;DHT22;2800;49.528;8.666;2022-09-12T02:43:45;14.40;99.90
5554;DHT22;2800;49.528;8.666;2022-09-12T02:46:18;14.40;99.90
5554;DHT22;2800;49.528;8.666;2022-09-12T02:48:44;14.30;99.90
5554;DHT22;2800;49.528;8.666;2022-09-12T02:51:10;14.20;99.90
5554;DHT22;2800;49.528;8.666;2022-09-12T02:53:36;14.10;99.90
5554;DHT22;2800;49.528;8.666;2022-09-12T02:56:05;14.00;99.90
5554;DHT22;2800;49.528;8.666;2022-09-12T02:58:32;13.90;99.90
5554;DHT22;2800;49.528;8.666;2022-09-12T03:04:14;13.90;99.90
5554;DHT22;2800;49.528;8.666;2022-09-12T03:06:53;13.90;99.90
5554;DHT22;2800;49.528;8.666;2022-09-12T03:09:46;13.90;99.90
5554;DHT22;2800;49.528;8.666;2022-09-12T03:12:22;13.90;99.90
5554;DHT22;2800;49.528;8.666;2022-09-12T03:15:02;14.00;99.90
5554;DHT22;2800;49.528;8.666;2022-09-12T03:20:52;14.00;99.90
5554;DHT22;2800;49.528;8.666;2022-09-12T03:26:25;13.80;99.90
5554;DHT22;2800;49.528;8.666;2022-09-12T03:28:53;13.70;99.90
5554;DHT22;2800;49.528;8.666;2022-09-12T03:31:20;13.60;99.90
5554;DHT22;2800;49.528;8.666;2022-09-12T03:33:46;13.50;99.90
5554;DHT22;2800;49.528;8.666;2022-09-12T03:36:15;13.50;99.90
5554;DHT22;2800;49.528;8.666;2022-09-12T03:38:43;13.50;99.90
5554;DHT22;2800;49.528;8.666;2022-09-12T03:41:09;13.60;99.90
5554;DHT22;2800;49.528;8.666;2022-09-12T03:43:34;13.60;99.90
5554;DHT22;2800;49.528;8.666;2022-09-12T03:46:00;13.60;99.90
5554;DHT22;2800;49.528;8.666;2022-09-12T03:48:25;13.60;99.90
5554;DHT22;2800;49.528;8.666;2022-09-12T03:50:51;13.70;99.90
5554;DHT22;2800;49.528;8.666;2022-09-12T03:53:16;13.70;99.90
5554;DHT22;2800;49.528;8.666;2022-09-12T03:55:42;13.60;99.90
5554;DHT22;2800;49.528;8.666;2022-09-12T03:58:08;13.30;99.90
5554;DHT22;2800;49.528;8.666;2022-09-12T04:00:33;13.30;99.90
5554;DHT22;2800;49.528;8.666;2022-09-12T04:02:58;13.20;99.90
5554;DHT22;2800;49.528;8.666;2022-09-12T04:05:24;13.10;99.90
5554;DHT22;2800;49.528;8.666;2022-09-12T04:07:50;13.10;99.90
5554;DHT22;2800;49.528;8.666;2022-09-12T04:10:16;13.10;99.90
5554;DHT22;2800;49.528;8.666;2022-09-12T04:12:42;13.20;99.90
5554;DHT22;2800;49.528;8.666;2022-09-12T04:15:08;13.20;99.90
5554;DHT22;2800;49.528;8.666;2022-09-12T04:17:34;13.20;99.90
5554;DHT22;2800;49.528;8.666;2022-09-12T04:20:00;13.20;99.90
5554;DHT22;2800;49.528;8.666;2022-09-12T04:22:25;13.20;99.90
5554;DHT22;2800;49.528;8.666;2022-09-12T04:24:51;13.20;99.90
5554;DHT22;2800;49.528;8.666;2022-09-12T04:27:16;13.20;99.90
5554;DHT22;2800;49.528;8.666;2022-09-12T04:29:42;13.20;99.90
5554;DHT22;2800;49.528;8.666;2022-09-12T04:32:08;13.20;99.90
5554;DHT22;2800;49.528;8.666;2022-09-12T04:34:33;13.20;99.90
5554;DHT22;2800;49.528;8.666;2022-09-12T04:36:59;13.20;99.90
5554;DHT22;2800;49.528;8.666;2022-09-12T04:39:24;13.20;99.90
5554;DHT22;2800;49.528;8.666;2022-09-12T04:41:50;13.20;99.90
5554;DHT22;2800;49.528;8.666;2022-09-12T04:44:16;13.20;99.90
5554;DHT22;2800;49.528;8.666;2022-09-12T04:46:43;13.10;99.90
5554;DHT22;2800;49.528;8.666;2022-09-12T04:49:10;13.10;99.90
5554;DHT22;2800;49.528;8.666;2022-09-12T04:51:37;13.10;99.90
5554;DHT22;2800;49.528;8.666;2022-09-12T04:54:07;13.20;99.90
5554;DHT22;2800;49.528;8.666;2022-09-12T04:56:36;13.20;99.90
5554;DHT22;2800;49.528;8.666;2022-09-12T04:59:02;13.20;99.90
5554;DHT22;2800;49.528;8.666;2022-09-12T05:01:28;13.20;99.90
5554;DHT22;2800;49.528;8.666;2022-09-12T05:03:55;13.20;99.90
5554;DHT22;2800;49.528;8.666;2022-09-12T05:06:28;13.20;99.90
5554;DHT22;2800;49.528;8.666;2022-09-12T05:08:55;13.20;99.90
5554;DHT22;2800;49.528;8.666;2022-09-12T05:11:24;13.10;99.90
5554;DHT22;2800;49.528;8.666;2022-09-12T05:13:50;13.10;99.90
5554;DHT22;2800;49.528;8.666;2022-09-12T05:16:17;13.20;99.90
5554;DHT22;2800;49.528;8.666;2022-09-12T05:18:44;13.20;99.90
5554;DHT22;2800;49.528;8.666;2022-09-12T05:21:13;13.30;99.90
5554;DHT22;2800;49.528;8.666;2022-09-12T05:23:40;13.30;99.90
5554;DHT22;2800;49.528;8.666;2022-09-12T05:26:06;13.40;99.90
5554;DHT22;2800;49.528;8.666;2022-09-12T05:28:37;13.30;99.90
5554;DHT22;2800;49.528;8.666;2022-09-12T05:31:07;13.40;99.90
5554;DHT22;2800;49.528;8.666;2022-09-12T05:33:35;13.40;99.90
5554;DHT22;2800;49.528;8.666;2022-09-12T05:36:02;13.30;99.90
5554;DHT22;2800;49.528;8.666;2022-09-12T05:38:28;13.30;99.90
5554;DHT22;2800;49.528;8.666;2022-09-12T05:41:01;13.40;99.90
5554;DHT22;2800;49.528;8.666;2022-09-12T05:43:28;13.50;99.90
5554;DHT22;2800;49.528;8.666;2022-09-12T05:46:02;13.50;99.90
5554;DHT22;2800;49.528;8.666;2022-09-12T05:48:28;13.60;99.90
5554;DHT22;2800;49.528;8.666;2022-09-12T05:51:06;13.70;99.90
5554;DHT22;2800;49.528;8.666;2022-09-12T05:53:34;13.70;99.90
5554;DHT22;2800;49.528;8.666;2022-09-12T05:56:09;13.70;99.90
5554;DHT22;2800;49.528;8.666;2022-09-12T05:58:36;14.00;99.90
5554;DHT22;2800;49.528;8.666;2022-09-12T06:01:06;14.30;99.90
5554;DHT22;2800;49.528;8.666;2022-09-12T06:03:34;14.70;99.90
5554;DHT22;2800;49.528;8.666;2022-09-12T06:06:03;15.00;99.90
5554;DHT22;2800;49.528;8.666;2022-09-12T06:08:31;15.30;99.90
5554;DHT22;2800;49.528;8.666;2022-09-12T06:11:06;15.50;99.90
5554;DHT22;2800;49.528;8.666;2022-09-12T06:13:33;15.70;99.90
5554;DHT22;2800;49.528;8.666;2022-09-12T06:16:04;16.00;99.90
5554;DHT22;2800;49.528;8.666;2022-09-12T06:18:30;16.20;99.90
5554;DHT22;2800;49.528;8.666;2022-09-12T06:20:56;16.50;99.90
5554;DHT22;2800;49.528;8.666;2022-09-12T06:23:21;16.60;99.90
5554;DHT22;2800;49.528;8.666;2022-09-12T06:25:47;16.80;99.90
5554;DHT22;2800;49.528;8.666;2022-09-12T06:28:14;17.00;99.90
5554;DHT22;2800;49.528;8.666;2022-09-12T06:30:40;17.20;99.90
5554;DHT22;2800;49.528;8.666;2022-09-12T06:33:05;17.40;99.90
5554;DHT22;2800;49.528;8.666;2022-09-12T06:35:35;17.20;99.90
5554;DHT22;2800;49.528;8.666;2022-09-12T06:38:00;17.10;99.90
5554;DHT22;2800;49.528;8.666;2022-09-12T06:40:26;17.10;99.90
5554;DHT22;2800;49.528;8.666;2022-09-12T06:42:52;17.40;99.90
5554;DHT22;2800;49.528;8.666;2022-09-12T06:45:18;17.50;99.90
5554;DHT22;2800;49.528;8.666;2022-09-12T06:47:44;17.50;99.90
5554;DHT22;2800;49.528;8.666;2022-09-12T06:50:10;17.60;99.90
5554;DHT22;2800;49.528;8.666;2022-09-12T06:52:35;17.80;99.90
5554;DHT22;2800;49.528;8.666;2022-09-12T06:55:02;17.90;99.90
5554;DHT22;2800;49.528;8.666;2022-09-12T06:57:27;17.90;99.90
5554;DHT22;2800;49.528;8.666;2022-09-12T06:59:55;18.00;99.90
5554;DHT22;2800;49.528;8.666;2022-09-12T07:02:21;18.00;99.90
5554;DHT22;2800;49.528;8.666;2022-09-12T07:04:46;18.00;99.90
5554;DHT22;2800;49.528;8.666;2022-09-12T07:07:14;18.10;99.90
5554;DHT22;2800;49.528;8.666;2022-09-12T07:09:39;18.20;99.90
5554;DHT22;2800;49.528;8.666;2022-09-12T07:12:05;18.30;99.90
5554;DHT22;2800;49.528;8.666;2022-09-12T07:14:31;18.40;99.90
5554;DHT22;2800;49.528;8.666;2022-09-12T07:16:56;18.70;99.90
5554;DHT22;2800;49.528;8.666;2022-09-12T07:19:22;18.60;99.90
5554;DHT22;2800;49.528;8.666;2022-09-12T07:21:48;18.80;99.90
5554;DHT22;2800;49.528;8.666;2022-09-12T07:24:14;19.00;99.90
5554;DHT22;2800;49.528;8.666;2022-09-12T07:26:40;19.00;99.90
5554;DHT22;2800;49.528;8.666;2022-09-12T07:29:06;19.30;99.90
5554;DHT22;2800;49.528;8.666;2022-09-12T07:31:33;19.50;99.90
5554;DHT22;2800;49.528;8.666;2022-09-12T07:33:58;19.60;99.90
5554;DHT22;2800;49.528;8.666;2022-09-12T07:36:24;19.40;99.90
5554;DHT22;2800;49.528;8.666;2022-09-12T07:38:54;19.50;99.90
5554;DHT22;2800;49.528;8.666;2022-09-12T07:41:23;19.80;99.90
5554;DHT22;2800;49.528;8.666;2022-09-12T07:43:53;19.90;99.90
5554;DHT22;2800;49.528;8.666;2022-09-12T07:46:19;20.00;99.90
5554;DHT22;2800;49.528;8.666;2022-09-12T07:48:53;20.00;99.90
5554;DHT22;2800;49.528;8.666;2022-09-12T07:51:20;20.10;99.90
5554;DHT22;2800;49.528;8.666;2022-09-12T07:53:46;20.40;99.90
5554;DHT22;2800;49.528;8.666;2022-09-12T07:56:13;20.30;99.90
5554;DHT22;2800;49.528;8.666;2022-09-12T07:58:40;20.40;99.90
5554;DHT22;2800;49.528;8.666;2022-09-12T08:01:11;20.50;99.90
5554;DHT22;2800;49.528;8.666;2022-09-12T08:03:38;20.40;99.90
5554;DHT22;2800;49.528;8.666;2022-09-12T08:06:08;20.20;99.90
5554;DHT22;2800;49.528;8.666;2022-09-12T08:08:35;20.60;99.90
5554;DHT22;2800;49.528;8.666;2022-09-12T08:11:02;20.90;99.90
5554;DHT22;2800;49.528;8.666;2022-09-12T08:13:30;20.80;99.90
5554;DHT22;2800;49.528;8.666;2022-09-12T08:15:57;21.10;99.90
5554;DHT22;2800;49.528;8.666;2022-09-12T08:18:25;21.30;99.90
5554;DHT22;2800;49.528;8.666;2022-09-12T08:20:56;21.20;99.90
5554;DHT22;2800;49.528;8.666;2022-09-12T08:23:21;21.70;99.90
5554;DHT22;2800;49.528;8.666;2022-09-12T08:25:48;21.70;99.90
5554;DHT22;2800;49.528;8.666;2022-09-12T08:28:14;21.60;99.90
5554;DHT22;2800;49.528;8.666;2022-09-12T08:30:39;21.60;99.90
5554;DHT22;2800;49.528;8.666;2022-09-12T08:33:05;21.70;99.90
5554;DHT22;2800;49.528;8.666;2022-09-12T08:35:32;21.70;99.90
5554;DHT22;2800;49.528;8.666;2022-09-12T08:37:57;22.20;99.90
5554;DHT22;2800;49.528;8.666;2022-09-12T08:40:23;22.40;99.90
5554;DHT22;2800;49.528;8.666;2022-09-12T08:43:13;22.90;99.90
5554;DHT22;2800;49.528;8.666;2022-09-12T08:46:10;23.10;99.90
5554;DHT22;2800;49.528;8.666;2022-09-12T08:48:33;23.30;99.90
5554;DHT22;2800;49.528;8.666;2022-09-12T08:51:00;23.30;99.90
5554;DHT22;2800;49.528;8.666;2022-09-12T08:53:27;23.20;99.90
5554;DHT22;2800;49.528;8.666;2022-09-12T08:55:58;23.20;99.90
5554;DHT22;2800;49.528;8.666;2022-09-12T08:58:26;23.30;99.90
5554;DHT22;2800;49.528;8.666;2022-09-12T09:09:05;23.50;99.90
5554;DHT22;2800;49.528;8.666;2022-09-12T09:12:08;23.80;99.90
5554;DHT22;2800;49.528;8.666;2022-09-12T09:17:29;24.20;99.90
5554;DHT22;2800;49.528;8.666;2022-09-12T09:20:06;24.50;99.90
5554;DHT22;2800;49.528;8.666;2022-09-12T09:22:45;24.80;99.90
5554;DHT22;2800;49.528;8.666;2022-09-12T09:25:23;24.90;99.90
5554;DHT22;2800;49.528;8.666;2022-09-12T09:27:59;24.60;99.90
5554;DHT22;2800;49.528;8.666;2022-09-12T09:30:26;25.00;99.90
5554;DHT22;2800;49.528;8.666;2022-09-12T09:32:59;25.20;99.90
5554;DHT22;2800;49.528;8.666;2022-09-12T09:38:04;25.10;99.90
5554;DHT22;2800;49.528;8.666;2022-09-12T09:43:24;25.70;99.90
5554;DHT22;2800;49.528;8.666;2022-09-12T09:45:53;25.80;99.90
5554;DHT22;2800;49.528;8.666;2022-09-12T09:48:30;26.40;99.90
5554;DHT22;2800;49.528;8.666;2022-09-12T09:50:58;26.80;99.90
5554;DHT22;2800;49.528;8.666;2022-09-12T09:53:32;26.60;99.90
5554;DHT22;2800;49.528;8.666;2022-09-12T09:56:02;26.30;99.90
5554;DHT22;2800;49.528;8.666;2022-09-12T09:58:32;25.90;99.90
5554;DHT22;2800;49.528;8.666;2022-09-12T10:01:03;25.70;99.90
5554;DHT22;2800;49.528;8.666;2022-09-12T10:03:31;25.90;99.90
5554;DHT22;2800;49.528;8.666;2022-09-12T10:08:45;26.50;99.90
5554;DHT22;2800;49.528;8.666;2022-09-12T10:11:21;26.70;99.90
5554;DHT22;2800;49.528;8.666;2022-09-12T10:16:22;26.50;99.90
5554;DHT22;2800;49.528;8.666;2022-09-12T10:18:49;26.60;99.90
5554;DHT22;2800;49.528;8.666;2022-09-12T10:21:54;26.60;99.90
5554;DHT22;2800;49.528;8.666;2022-09-12T10:24:38;26.90;99.90
5554;DHT22;2800;49.528;8.666;2022-09-12T10:29:37;27.20;99.90
5554;DHT22;2800;49.528;8.666;2022-09-12T10:32:06;27.50;99.90
5554;DHT22;2800;49.528;8.666;2022-09-12T10:34:41;27.70;99.90
5554;DHT22;2800;49.528;8.666;2022-09-12T10:37:14;27.80;99.90
5554;DHT22;2800;49.528;8.666;2022-09-12T10:39:53;27.80;99.90
5554;DHT22;2800;49.528;8.666;2022-09-12T10:42:46;28.10;99.90
5554;DHT22;2800;49.528;8.666;2022-09-12T10:45:32;27.60;99.90
5554;DHT22;2800;49.528;8.666;2022-09-12T10:48:01;27.40;99.90
5554;DHT22;2800;49.528;8.666;2022-09-12T10:50:41;27.30;99.90
5554;DHT22;2800;49.528;8.666;2022-09-12T10:53:24;27.40;99.90
5554;DHT22;2800;49.528;8.666;2022-09-12T10:56:12;27.40;99.90
5554;DHT22;2800;49.528;8.666;2022-09-12T11:01:45;27.50;99.90
5554;DHT22;2800;49.528;8.666;2022-09-12T11:04:35;28.10;99.90
5554;DHT22;2800;49.528;8.666;2022-09-12T11:09:55;28.20;99.90
5554;DHT22;2800;49.528;8.666;2022-09-12T11:12:40;28.70;99.90
5554;DHT22;2800;49.528;8.666;2022-09-12T11:15:25;29.10;99.90
5554;DHT22;2800;49.528;8.666;2022-09-12T11:18:04;29.90;99.90
5554;DHT22;2800;49.528;8.666;2022-09-12T11:23:37;29.50;99.90
5554;DHT22;2800;49.528;8.666;2022-09-12T11:26:41;29.60;99.90
5554;DHT22;2800;49.528;8.666;2022-09-12T11:38:17;29.60;99.90
5554;DHT22;2800;49.528;8.666;2022-09-12T11:41:04;29.80;99.60
5554;DHT22;2800;49.528;8.666;2022-09-12T11:46:38;30.20;99.90
5554;DHT22;2800;49.528;8.666;2022-09-12T11:55:19;30.90;99.90
5554;DHT22;2800;49.528;8.666;2022-09-12T11:57:52;31.10;99.90
5554;DHT22;2800;49.528;8.666;2022-09-12T12:06:10;31.90;99.90
5554;DHT22;2800;49.528;8.666;2022-09-12T12:08:38;31.90;99.90
5554;DHT22;2800;49.528;8.666;2022-09-12T12:11:05;31.30;99.30
5554;DHT22;2800;49.528;8.666;2022-09-12T12:13:38;32.10;99.90
5554;DHT22;2800;49.528;8.666;2022-09-12T12:16:11;31.80;99.90
5554;DHT22;2800;49.528;8.666;2022-09-12T12:18:39;32.10;99.90
5554;DHT22;2800;49.528;8.666;2022-09-12T12:24:22;32.40;99.90
5554;DHT22;2800;49.528;8.666;2022-09-12T12:34:42;31.50;99.90
5554;DHT22;2800;49.528;8.666;2022-09-12T12:44:59;32.30;99.90
5554;DHT22;2800;49.528;8.666;2022-09-12T12:47:30;32.00;99.90
5554;DHT22;2800;49.528;8.666;2022-09-12T12:50:07;32.20;99.90
5554;DHT22;2800;49.528;8.666;2022-09-12T12:52:49;32.80;99.90
5554;DHT22;2800;49.528;8.666;2022-09-12T12:58:00;33.20;99.90
5554;DHT22;2800;49.528;8.666;2022-09-12T13:00:35;33.60;99.90
5554;DHT22;2800;49.528;8.666;2022-09-12T13:05:43;31.60;99.90
5554;DHT22;2800;49.528;8.666;2022-09-12T13:10:53;32.10;99.90
5554;DHT22;2800;49.528;8.666;2022-09-12T13:13:37;33.20;99.90
5554;DHT22;2800;49.528;8.666;2022-09-12T13:16:04;33.60;99.90
5554;DHT22;2800;49.528;8.666;2022-09-12T13:18:43;33.30;99.90
5554;DHT22;2800;49.528;8.666;2022-09-12T13:21:18;33.30;99.90
5554;DHT22;2800;49.528;8.666;2022-09-12T13:23:57;32.30;99.90
5554;DHT22;2800;49.528;8.666;2022-09-12T13:26:24;32.00;99.90
5554;DHT22;2800;49.528;8.666;2022-09-12T13:29:11;32.10;99.90
5554;DHT22;2800;49.528;8.666;2022-09-12T13:31:39;32.30;99.90
5554;DHT22;2800;49.528;8.666;2022-09-12T13:34:06;33.40;99.90
5554;DHT22;2800;49.528;8.666;2022-09-12T13:37:00;33.70;99.90
5554;DHT22;2800;49.528;8.666;2022-09-12T13:39:45;34.20;99.90
5554;DHT22;2800;49.528;8.666;2022-09-12T13:42:27;34.60;99.90
5554;DHT22;2800;49.528;8.666;2022-09-12T13:45:05;34.10;99.90
5554;DHT22;2800;49.528;8.666;2022-09-12T13:47:44;33.50;99.90
5554;DHT22;2800;49.528;8.666;2022-09-12T13:50:23;34.00;99.90
5554;DHT22;2800;49.528;8.666;2022-09-12T13:52:53;34.10;99.90
5554;DHT22;2800;49.528;8.666;2022-09-12T13:57:56;33.00;99.90
5554;DHT22;2800;49.528;8.666;2022-09-12T14:00:22;33.40;99.90
5554;DHT22;2800;49.528;8.666;2022-09-12T14:02:48;33.10;99.90
5554;DHT22;2800;49.528;8.666;2022-09-12T14:05:25;33.10;99.90
5554;DHT22;2800;49.528;8.666;2022-09-12T14:10:30;33.40;99.90
5554;DHT22;2800;49.528;8.666;2022-09-12T14:12:57;33.40;99.90
5554;DHT22;2800;49.528;8.666;2022-09-12T14:15:26;33.40;99.90
5554;DHT22;2800;49.528;8.666;2022-09-12T14:17:56;32.70;99.90
5554;DHT22;2800;49.528;8.666;2022-09-12T14:20:26;33.10;99.90
5554;DHT22;2800;49.528;8.666;2022-09-12T14:23:18;33.30;99.90
5554;DHT22;2800;49.528;8.666;2022-09-12T14:25:46;33.60;99.90
5554;DHT22;2800;49.528;8.666;2022-09-12T14:28:15;32.80;99.90
5554;DHT22;2800;49.528;8.666;2022-09-12T14:33:51;31.20;99.90
5554;DHT22;2800;49.528;8.666;2022-09-12T14:36:26;31.10;99.90
5554;DHT22;2800;49.528;8.666;2022-09-12T14:39:01;30.90;99.90
5554;DHT22;2800;49.528;8.666;2022-09-12T14:41:34;31.20;99.90
5554;DHT22;2800;49.528;8.666;2022-09-12T14:44:04;31.40;99.90
5554;DHT22;2800;49.528;8.666;2022-09-12T14:46:39;31.50;99.90
5554;DHT22;2800;49.528;8.666;2022-09-12T14:49:15;31.60;99.90
5554;DHT22;2800;49.528;8.666;2022-09-12T14:56:59;32.40;99.90
5554;DHT22;2800;49.528;8.666;2022-09-12T14:59:35;33.00;99.90
5554;DHT22;2800;49.528;8.666;2022-09-12T15:07:37;32.10;99.90
5554;DHT22;2800;49.528;8.666;2022-09-12T15:10:27;32.10;99.90
5554;DHT22;2800;49.528;8.666;2022-09-12T15:15:33;32.00;99.90
5554;DHT22;2800;49.528;8.666;2022-09-12T15:17:59;31.80;99.90
5554;DHT22;2800;49.528;8.666;2022-09-12T15:20:24;32.00;99.90
5554;DHT22;2800;49.528;8.666;2022-09-12T15:22:51;32.30;99.90
5554;DHT22;2800;49.528;8.666;2022-09-12T15:25:17;32.20;99.90
5554;DHT22;2800;49.528;8.666;2022-09-12T15:27:44;32.60;99.90
5554;DHT22;2800;49.528;8.666;2022-09-12T15:30:11;32.80;99.90
5554;DHT22;2800;49.528;8.666;2022-09-12T15:32:38;33.60;99.90
5554;DHT22;2800;49.528;8.666;2022-09-12T15:35:17;33.40;99.90
5554;DHT22;2800;49.528;8.666;2022-09-12T15:37:43;33.40;99.90
5554;DHT22;2800;49.528;8.666;2022-09-12T15:40:11;32.40;99.90
5554;DHT22;2800;49.528;8.666;2022-09-12T15:42:37;32.40;99.90
5554;DHT22;2800;49.528;8.666;2022-09-12T15:45:21;31.60;99.90
5554;DHT22;2800;49.528;8.666;2022-09-12T15:47:47;31.30;99.90
5554;DHT22;2800;49.528;8.666;2022-09-12T15:50:12;31.50;99.90
5554;DHT22;2800;49.528;8.666;2022-09-12T15:52:38;31.70;99.90
5554;DHT22;2800;49.528;8.666;2022-09-12T15:55:05;32.20;99.90
5554;DHT22;2800;49.528;8.666;2022-09-12T15:57:34;32.60;99.90
5554;DHT22;2800;49.528;8.666;2022-09-12T15:59:59;32.80;99.90
5554;DHT22;2800;49.528;8.666;2022-09-12T16:02:25;32.00;99.90
5554;DHT22;2800;49.528;8.666;2022-09-12T16:04:50;32.10;99.90
5554;DHT22;2800;49.528;8.666;2022-09-12T16:07:18;32.40;99.90
5554;DHT22;2800;49.528;8.666;2022-09-12T16:09:44;31.50;99.90
5554;DHT22;2800;49.528;8.666;2022-09-12T16:12:10;30.80;99.90
5554;DHT22;2800;49.528;8.666;2022-09-12T16:14:36;30.90;99.90
5554;DHT22;2800;49.528;8.666;2022-09-12T16:17:01;30.50;99.90
5554;DHT22;2800;49.528;8.666;2022-09-12T16:19:27;30.70;99.90
5554;DHT22;2800;49.528;8.666;2022-09-12T16:21:52;30.40;99.90
5554;DHT22;2800;49.528;8.666;2022-09-12T16:24:18;30.80;99.90
5554;DHT22;2800;49.528;8.666;2022-09-12T16:26:43;29.90;99.90
5554;DHT22;2800;49.528;8.666;2022-09-12T16:29:11;29.40;99.90
5554;DHT22;2800;49.528;8.666;2022-09-12T16:31:37;29.30;99.90
5554;DHT22;2800;49.528;8.666;2022-09-12T16:34:04;29.40;99.90
5554;DHT22;2800;49.528;8.666;2022-09-12T16:36:30;30.10;99.90
5554;DHT22;2800;49.528;8.666;2022-09-12T16:38:55;29.50;99.90
5554;DHT22;2800;49.528;8.666;2022-09-12T16:41:23;29.00;99.90
5554;DHT22;2800;49.528;8.666;2022-09-12T16:43:49;28.70;98.70
5554;DHT22;2800;49.528;8.666;2022-09-12T16:46:24;28.40;99.90
5554;DHT22;2800;49.528;8.666;2022-09-12T16:48:51;28.30;99.90
5554;DHT22;2800;49.528;8.666;2022-09-12T16:51:19;27.80;99.90
5554;DHT22;2800;49.528;8.666;2022-09-12T16:53:45;27.50;99.90
5554;DHT22;2800;49.528;8.666;2022-09-12T16:56:11;27.30;99.90
5554;DHT22;2800;49.528;8.666;2022-09-12T16:58:39;26.70;99.10
5554;DHT22;2800;49.528;8.666;2022-09-12T17:01:07;26.10;97.80
5554;DHT22;2800;49.528;8.666;2022-09-12T17:03:33;25.70;95.90
5554;DHT22;2800;49.528;8.666;2022-09-12T17:06:11;25.50;95.50
5554;DHT22;2800;49.528;8.666;2022-09-12T17:08:40;25.20;95.50
5554;DHT22;2800;49.528;8.666;2022-09-12T17:11:18;24.70;94.80
5554;DHT22;2800;49.528;8.666;2022-09-12T17:13:48;24.20;94.40
5554;DHT22;2800;49.528;8.666;2022-09-12T17:16:14;23.60;93.90
5554;DHT22;2800;49.528;8.666;2022-09-12T17:18:40;23.10;95.50
5554;DHT22;2800;49.528;8.666;2022-09-12T17:21:06;22.60;95.00
5554;DHT22;2800;49.528;8.666;2022-09-12T17:23:32;22.30;95.30
5554;DHT22;2800;49.528;8.666;2022-09-12T17:25:58;22.00;96.30
5554;DHT22;2800;49.528;8.666;2022-09-12T17:28:24;21.70;95.90
5554;DHT22;2800;49.528;8.666;2022-09-12T17:30:58;21.50;97.40
5554;DHT22;2800;49.528;8.666;2022-09-12T17:33:24;21.30;98.70
5554;DHT22;2800;49.528;8.666;2022-09-12T17:35:50;21.10;99.90
5554;DHT22;2800;49.528;8.666;2022-09-12T17:38:17;20.90;99.90
5554;DHT22;2800;49.528;8.666;2022-09-12T17:40:42;20.70;99.90
5554;DHT22;2800;49.528;8.666;2022-09-12T17:43:10;20.40;99.90
5554;DHT22;2800;49.528;8.666;2022-09-12T17:45:36;20.20;99.90
5554;DHT22;2800;49.528;8.666;2022-09-12T17:48:02;20.10;99.90
5554;DHT22;2800;49.528;8.666;2022-09-12T17:50:27;19.90;99.90
5554;DHT22;2800;49.528;8.666;2022-09-12T17:52:54;19.80;99.90
5554;DHT22;2800;49.528;8.666;2022-09-12T17:55:19;19.60;99.90
5554;DHT22;2800;49.528;8.666;2022-09-12T17:57:45;19.50;99.90
5554;DHT22;2800;49.528;8.666;2022-09-12T18:00:11;19.40;99.90
5554;DHT22;2800;49.528;8.666;2022-09-12T18:02:37;19.40;99.90
5554;DHT22;2800;49.528;8.666;2022-09-12T18:05:03;19.30;99.90
5554;DHT22;2800;49.528;8.666;2022-09-12T18:07:30;19.20;99.90
5554;DHT22;2800;49.528;8.666;2022-09-12T18:09:56;19.20;99.90
5554;DHT22;2800;49.528;8.666;2022-09-12T18:12:23;19.10;99.90
5554;DHT22;2800;49.528;8.666;2022-09-12T18:14:48;19.00;99.90
5554;DHT22;2800;49.528;8.666;2022-09-12T18:17:14;18.90;99.90
5554;DHT22;2800;49.528;8.666;2022-09-12T18:19:40;18.90;99.90
5554;DHT22;2800;49.528;8.666;2022-09-12T18:22:06;18.80;99.90
5554;DHT22;2800;49.528;8.666;2022-09-12T18:24:32;18.70;99.90
5554;DHT22;2800;49.528;8.666;2022-09-12T18:26:58;18.60;99.90
5554;DHT22;2800;49.528;8.666;2022-09-12T18:29:24;18.60;99.90
5554;DHT22;2800;49.528;8.666;2022-09-12T18:31:50;18.50;99.90
5554;DHT22;2800;49.528;8.666;2022-09-12T18:34:16;18.40;99.90
5554;DHT22;2800;49.528;8.666;2022-09-12T18:36:44;18.40;99.90